createdAt,value
2022-11-06T00:04:26.243Z,16.50
2022-11-06T00:18:15.783Z,16.60
2022-11-06T00:37:47.432Z,16.50
2022-11-06T00:42:58.033Z,16.50
2022-11-06T00:56:45.750Z,16.50
2022-11-06T01:16:15.748Z,16.50
2022-11-06T01:18:42.233Z,16.50
2022-11-06T01:55:19.566Z,16.50
2022-11-06T02:12:03.791Z,16.60
2022-11-06T02:14:39.895Z,16.70
2022-11-06T02:25:39.800Z,16.50
2022-11-06T02:28:06.268Z,16.50
2022-11-06T02:44:46.447Z,16.60
2022-11-06T02:58:38.785Z,16.40
2022-11-06T03:01:05.602Z,16.50
2022-11-06T03:06:16.215Z,16.50
2022-11-06T03:11:26.660Z,16.50
2022-11-06T03:19:33.860Z,16.50
2022-11-06T03:27:40.416Z,16.50
2022-11-06T03:35:45.869Z,16.40
2022-11-06T03:58:01.628Z,16.50
2022-11-06T04:03:11.985Z,16.60
2022-11-06T04:05:39.877Z,16.50
2022-11-06T04:08:06.354Z,16.50
2022-11-06T04:16:14.621Z,16.40
2022-11-06T04:18:41.083Z,16.40
2022-11-06T04:26:49.555Z,16.60
2022-11-06T04:29:27.906Z,16.50
2022-11-06T04:37:34.712Z,16.50
2022-11-06T04:40:10.052Z,16.40
2022-11-06T04:48:18.644Z,16.40
2022-11-06T04:56:26.068Z,16.50
2022-11-06T05:01:40.087Z,16.60
2022-11-06T05:04:22.064Z,16.50
2022-11-06T05:26:45.625Z,16.50
2022-11-06T05:31:55.873Z,16.50
2022-11-06T05:37:06.170Z,16.50
2022-11-06T05:47:57.704Z,16.50
2022-11-06T05:56:04.517Z,16.60
2022-11-06T06:01:14.929Z,16.60
2022-11-06T06:09:16.001Z,16.40
2022-11-06T06:17:27.984Z,16.50
2022-11-06T06:25:28.724Z,16.30
2022-11-06T06:42:04.022Z,16.50
2022-11-06T06:50:04.641Z,16.40
2022-11-06T06:55:21.466Z,16.50
2022-11-06T07:00:39.641Z,16.50
2022-11-06T07:03:10.117Z,16.40
2022-11-06T07:25:33.823Z,16.30
2022-11-06T07:28:16.297Z,16.30
2022-11-06T07:30:43.007Z,16.40
2022-11-06T07:33:10.017Z,16.40
2022-11-06T07:38:26.614Z,16.50
2022-11-06T07:40:58.060Z,16.50
2022-11-06T07:43:28.081Z,16.40
2022-11-06T07:57:17.710Z,16.60
2022-11-06T07:59:58.101Z,16.60
2022-11-06T08:10:57.682Z,16.60
2022-11-06T08:16:10.103Z,16.60
2022-11-06T08:21:20.704Z,16.60
2022-11-06T08:26:34.085Z,16.50
2022-11-06T08:31:44.386Z,16.60
2022-11-06T08:34:10.853Z,16.60
2022-11-06T08:36:37.330Z,16.60
2022-11-06T08:41:52.125Z,16.60
2022-11-06T08:44:22.123Z,16.60
2022-11-06T08:49:40.115Z,16.70
2022-11-06T08:57:47.809Z,16.80
2022-11-06T09:08:46.128Z,16.60
2022-11-06T09:11:12.606Z,16.60
2022-11-06T09:25:03.517Z,16.70
2022-11-06T09:36:04.174Z,16.70
2022-11-06T09:38:40.153Z,16.70
2022-11-06T09:41:10.179Z,16.70
2022-11-06T09:52:01.681Z,16.70
2022-11-06T10:02:53.886Z,16.60
2022-11-06T10:08:04.321Z,16.70
2022-11-06T10:16:16.178Z,16.70
2022-11-06T10:21:26.576Z,16.70
2022-11-06T10:23:53.036Z,16.70
2022-11-06T10:26:22.208Z,16.70
2022-11-06T10:28:52.231Z,16.70
2022-11-06T10:31:22.215Z,16.80
2022-11-06T10:33:58.300Z,16.60
2022-11-06T10:42:12.068Z,16.70
2022-11-06T10:44:38.534Z,16.80
2022-11-06T10:47:05.221Z,16.80
2022-11-06T10:49:31.752Z,16.70
2022-11-06T10:51:58.288Z,16.70
2022-11-06T10:54:24.752Z,16.80
2022-11-06T10:56:51.224Z,16.70
2022-11-06T10:59:17.690Z,16.80
2022-11-06T11:01:44.283Z,16.80
2022-11-06T11:04:10.864Z,16.80
2022-11-06T11:06:37.359Z,16.80
2022-11-06T11:09:03.842Z,16.80
2022-11-06T11:11:30.314Z,16.80
2022-11-06T11:13:56.775Z,16.90
2022-11-06T11:16:23.291Z,16.80
2022-11-06T11:18:49.753Z,16.80
2022-11-06T11:21:16.260Z,16.80
2022-11-06T11:23:42.747Z,16.80
2022-11-06T11:26:09.244Z,16.90
2022-11-06T11:28:35.715Z,16.80
2022-11-06T11:31:02.228Z,16.80
2022-11-06T11:33:28.722Z,16.80
2022-11-06T11:35:55.233Z,16.80
2022-11-06T11:38:21.703Z,16.80
2022-11-06T11:40:48.190Z,16.80
2022-11-06T11:43:14.657Z,16.80
2022-11-06T11:45:41.146Z,16.80
2022-11-06T11:48:07.636Z,16.90
2022-11-06T11:50:34.115Z,16.90
2022-11-06T11:53:03.312Z,16.90
2022-11-06T11:55:33.719Z,16.90
2022-11-06T11:58:00.199Z,16.90
2022-11-06T12:00:26.674Z,16.90
2022-11-06T12:02:53.214Z,16.90
2022-11-06T12:05:19.770Z,16.90
2022-11-06T12:07:46.682Z,16.80
2022-11-06T12:10:13.156Z,16.90
2022-11-06T12:12:39.630Z,16.90
2022-11-06T12:15:06.093Z,16.90
2022-11-06T12:17:32.560Z,16.90
2022-11-06T12:19:59.051Z,16.80
2022-11-06T12:22:25.530Z,16.80
2022-11-06T12:24:51.995Z,16.80
2022-11-06T12:27:18.466Z,16.70
2022-11-06T12:29:44.933Z,16.80
2022-11-06T12:32:11.402Z,16.80
2022-11-06T12:34:37.887Z,16.80
2022-11-06T12:37:04.382Z,16.90
2022-11-06T12:39:30.850Z,16.90
2022-11-06T12:41:57.320Z,16.80
2022-11-06T12:44:23.801Z,16.80
2022-11-06T12:46:50.271Z,16.80
2022-11-06T12:49:16.734Z,16.90
2022-11-06T12:51:43.230Z,16.90
2022-11-06T12:54:09.708Z,16.90
2022-11-06T12:56:36.168Z,16.90
2022-11-06T12:59:02.629Z,16.90
2022-11-06T13:01:29.180Z,16.90
2022-11-06T13:03:55.761Z,16.90
2022-11-06T13:06:22.335Z,16.90
2022-11-06T13:08:48.963Z,16.90
2022-11-06T13:11:15.469Z,16.90
2022-11-06T13:13:41.958Z,16.80
2022-11-06T13:16:08.441Z,16.80
2022-11-06T13:18:34.910Z,16.80
2022-11-06T13:21:01.387Z,16.90
2022-11-06T13:23:27.862Z,16.80
2022-11-06T13:25:54.379Z,16.80
2022-11-06T13:28:20.866Z,16.90
2022-11-06T13:30:47.345Z,16.90
2022-11-06T13:33:13.810Z,16.90
2022-11-06T13:35:40.286Z,16.90
2022-11-06T13:38:06.764Z,16.80
2022-11-06T13:40:33.230Z,16.80
2022-11-06T13:42:59.717Z,16.90
2022-11-06T13:45:26.197Z,16.90
2022-11-06T13:47:52.678Z,16.90
2022-11-06T13:50:19.165Z,16.80
2022-11-06T13:52:45.620Z,16.90
2022-11-06T13:55:12.080Z,16.90
2022-11-06T13:57:38.555Z,16.90
2022-11-06T14:00:05.028Z,16.90
2022-11-06T14:02:31.609Z,16.70
2022-11-06T14:04:58.202Z,16.70
2022-11-06T14:07:24.694Z,16.80
2022-11-06T14:09:51.170Z,16.70
2022-11-06T14:12:17.669Z,16.80
2022-11-06T14:14:44.143Z,16.80
2022-11-06T14:17:10.631Z,16.80
2022-11-06T14:19:37.119Z,16.80
2022-11-06T14:22:03.615Z,16.80
2022-11-06T14:24:30.107Z,16.80
2022-11-06T14:26:56.607Z,16.80
2022-11-06T14:29:23.081Z,16.80
2022-11-06T14:31:49.568Z,16.90
2022-11-06T14:34:16.054Z,16.80
2022-11-06T14:36:42.527Z,16.70
2022-11-06T14:39:09.013Z,16.80
2022-11-06T14:41:35.490Z,16.80
2022-11-06T14:44:01.957Z,16.80
2022-11-06T14:46:28.450Z,16.70
2022-11-06T14:48:54.923Z,16.70
2022-11-06T14:51:21.434Z,16.80
2022-11-06T14:53:47.961Z,16.80
2022-11-06T14:56:16.442Z,16.80
2022-11-06T14:58:42.926Z,16.80
2022-11-06T15:01:09.498Z,16.80
2022-11-06T15:03:36.030Z,16.80
2022-11-06T15:06:02.510Z,16.80
2022-11-06T15:08:29.020Z,16.60
2022-11-06T15:10:55.499Z,16.60
2022-11-06T15:13:21.979Z,16.70
2022-11-06T15:15:48.469Z,16.60
2022-11-06T15:18:15.218Z,16.60
2022-11-06T15:20:42.023Z,16.70
2022-11-06T15:23:08.507Z,16.60
2022-11-06T15:25:35.034Z,16.70
2022-11-06T15:28:01.514Z,16.70
2022-11-06T15:30:28.011Z,16.70
2022-11-06T15:32:54.498Z,16.60
2022-11-06T15:35:20.965Z,16.40
2022-11-06T15:37:47.438Z,16.60
2022-11-06T15:40:13.915Z,16.50
2022-11-06T15:42:40.401Z,16.50
2022-11-06T15:45:06.904Z,16.50
2022-11-06T15:47:33.376Z,16.50
2022-11-06T15:49:59.863Z,16.40
2022-11-06T15:52:26.366Z,16.40
2022-11-06T15:54:56.861Z,16.50
2022-11-06T15:57:23.535Z,16.50
2022-11-06T15:59:50.042Z,16.50
2022-11-06T16:02:16.552Z,16.50
2022-11-06T16:04:43.190Z,16.60
2022-11-06T16:07:09.675Z,16.50
2022-11-06T16:09:36.152Z,16.60
2022-11-06T16:12:02.642Z,16.60
2022-11-06T16:14:29.108Z,16.20
2022-11-06T16:16:55.613Z,16.50
2022-11-06T16:19:22.091Z,16.30
2022-11-06T16:21:48.577Z,16.30
2022-11-06T16:24:15.065Z,16.50
2022-11-06T16:26:41.546Z,16.50
2022-11-06T16:29:08.072Z,16.60
2022-11-06T16:31:34.758Z,16.60
2022-11-06T16:34:01.256Z,16.50
2022-11-06T16:36:27.751Z,16.60
2022-11-06T16:38:54.234Z,16.50
2022-11-06T16:41:20.720Z,16.50
2022-11-06T16:43:47.214Z,16.60
2022-11-06T16:46:13.706Z,16.60
2022-11-06T16:48:40.199Z,16.80
2022-11-06T16:51:06.675Z,16.60
2022-11-06T16:53:33.157Z,16.50
2022-11-06T16:55:59.657Z,16.60
2022-11-06T16:58:26.146Z,16.80
2022-11-06T17:00:52.646Z,16.80
2022-11-06T17:03:19.143Z,16.80
2022-11-06T17:05:45.637Z,16.70
2022-11-06T17:08:12.105Z,16.70
2022-11-06T17:10:38.578Z,16.80
2022-11-06T17:13:05.046Z,16.80
2022-11-06T17:15:31.521Z,16.80
2022-11-06T17:17:58.005Z,16.80
2022-11-06T17:20:24.480Z,16.80
2022-11-06T17:22:50.957Z,16.80
2022-11-06T17:25:17.431Z,16.80
2022-11-06T17:27:44.103Z,16.70
2022-11-06T17:30:10.833Z,16.70
2022-11-06T17:32:37.369Z,16.80
2022-11-06T17:35:03.977Z,16.80
2022-11-06T17:37:30.614Z,16.80
2022-11-06T17:39:57.322Z,16.80
2022-11-06T17:42:24.166Z,16.80
2022-11-06T17:44:50.900Z,16.80
2022-11-06T17:47:17.545Z,16.80
2022-11-06T17:49:44.066Z,16.80
2022-11-06T17:52:10.876Z,16.80
2022-11-06T17:54:37.505Z,16.80
2022-11-06T17:57:04.373Z,16.90
2022-11-06T17:59:31.243Z,16.80
2022-11-06T18:01:57.935Z,16.70
2022-11-06T18:04:24.654Z,16.70
2022-11-06T18:06:51.170Z,16.80
2022-11-06T18:09:17.798Z,16.70
2022-11-06T18:11:44.415Z,16.60
2022-11-06T18:14:10.948Z,16.70
2022-11-06T18:16:42.273Z,16.80
2022-11-06T18:19:09.991Z,16.80
2022-11-06T18:21:40.596Z,16.70
2022-11-06T18:24:07.077Z,16.70
2022-11-06T18:26:33.577Z,16.80
2022-11-06T18:29:00.072Z,16.70
2022-11-06T18:31:26.583Z,16.70
2022-11-06T18:33:53.075Z,16.70
2022-11-06T18:36:19.542Z,16.80
2022-11-06T18:38:46.017Z,16.60
2022-11-06T18:41:12.499Z,16.50
2022-11-06T18:43:39.119Z,16.50
2022-11-06T18:46:05.920Z,16.30
2022-11-06T18:48:32.701Z,16.30
2022-11-06T18:50:59.372Z,16.30
2022-11-06T18:53:26.127Z,16.40
2022-11-06T18:55:52.955Z,16.50
2022-11-06T18:58:19.493Z,16.40
2022-11-06T19:00:45.994Z,16.40
2022-11-06T19:03:12.765Z,16.50
2022-11-06T19:05:39.314Z,16.50
2022-11-06T19:08:05.799Z,16.40
2022-11-06T19:10:32.317Z,16.30
2022-11-06T19:12:59.722Z,16.20
2022-11-06T19:15:26.276Z,16.30
2022-11-06T19:17:52.760Z,16.30
2022-11-06T19:20:19.271Z,16.30
2022-11-06T19:22:45.844Z,16.30
2022-11-06T19:25:12.617Z,16.20
2022-11-06T19:27:39.269Z,16.30
2022-11-06T19:30:05.800Z,16.30
2022-11-06T19:32:32.374Z,16.30
2022-11-06T19:34:58.961Z,16.30
2022-11-06T19:37:25.457Z,16.30
2022-11-06T19:39:52.087Z,16.20
2022-11-06T19:42:18.556Z,16.20
2022-11-06T19:44:45.015Z,16.20
2022-11-06T19:47:11.484Z,16.20
2022-11-06T19:49:37.978Z,16.10
2022-11-06T19:52:41.103Z,16.30
2022-11-06T19:54:50.954Z,16.10
2022-11-06T19:57:37.416Z,16.20
2022-11-06T20:00:08.628Z,16.20
2022-11-06T20:02:37.649Z,16.20
2022-11-06T20:05:04.286Z,16.20
2022-11-06T20:07:30.745Z,16.00
2022-11-06T20:09:57.349Z,16.10
2022-11-06T20:12:23.830Z,16.20
2022-11-06T20:14:50.304Z,16.20
2022-11-06T20:17:16.770Z,16.30
2022-11-06T20:19:43.240Z,15.90
2022-11-06T20:22:09.732Z,16.00
2022-11-06T20:24:36.211Z,15.80
2022-11-06T20:27:05.135Z,15.70
2022-11-06T20:29:35.208Z,15.80
2022-11-06T20:32:01.693Z,15.80
2022-11-06T20:34:28.159Z,15.80
2022-11-06T20:36:54.630Z,15.90
2022-11-06T20:39:21.122Z,16.00
2022-11-06T20:41:47.607Z,16.00
2022-11-06T20:44:14.092Z,16.00
2022-11-06T20:46:40.594Z,16.00
2022-11-06T20:49:07.072Z,15.70
2022-11-06T20:51:42.997Z,15.70
2022-11-06T20:54:20.019Z,15.70
2022-11-06T20:56:46.510Z,15.80
2022-11-06T20:59:12.994Z,15.90
2022-11-06T21:01:39.601Z,15.90
2022-11-06T21:04:09.286Z,15.80
2022-11-06T21:06:35.784Z,16.00
2022-11-06T21:09:02.279Z,15.70
2022-11-06T21:11:28.759Z,15.60
2022-11-06T21:13:55.234Z,15.60
2022-11-06T21:16:21.702Z,15.80
2022-11-06T21:18:48.181Z,15.80
2022-11-06T21:21:14.655Z,15.70
2022-11-06T21:23:41.136Z,15.60
2022-11-06T21:26:07.630Z,15.70
2022-11-06T21:28:34.188Z,15.80
2022-11-06T21:31:00.703Z,15.80
2022-11-06T21:33:27.187Z,15.80
2022-11-06T21:35:53.668Z,15.70
2022-11-06T21:38:20.144Z,15.80
2022-11-06T21:40:46.638Z,15.70
2022-11-06T21:43:13.390Z,15.60
2022-11-06T21:45:40.049Z,15.70
2022-11-06T21:48:14.740Z,15.80
2022-11-06T21:50:52.357Z,15.60
2022-11-06T21:53:18.822Z,15.70
2022-11-06T21:55:47.775Z,15.70
2022-11-06T21:58:17.785Z,15.80
2022-11-06T22:00:44.278Z,15.80
2022-11-06T22:03:10.907Z,15.80
2022-11-06T22:05:37.527Z,15.80
2022-11-06T22:08:04.022Z,15.70
2022-11-06T22:10:30.513Z,15.70
2022-11-06T22:12:57.016Z,15.60
2022-11-06T22:15:23.526Z,15.80
2022-11-06T22:17:50.001Z,15.80
2022-11-06T22:20:16.503Z,15.70
2022-11-06T22:22:42.986Z,15.80
2022-11-06T22:25:09.458Z,15.80
2022-11-06T22:27:40.667Z,15.70
2022-11-06T22:30:07.455Z,15.70
2022-11-06T22:32:33.921Z,15.70
2022-11-06T22:35:00.402Z,15.70
2022-11-06T22:37:26.877Z,15.70
2022-11-06T22:39:53.347Z,15.60
2022-11-06T22:42:19.827Z,15.70
2022-11-06T22:44:46.765Z,15.60
2022-11-06T22:47:13.291Z,15.70
2022-11-06T22:49:39.773Z,15.80
2022-11-06T22:52:06.270Z,15.70
2022-11-06T22:54:32.754Z,15.60
2022-11-06T22:56:59.248Z,15.50
2022-11-06T22:59:25.723Z,15.50
2022-11-06T23:01:52.219Z,15.60
2022-11-06T23:04:18.708Z,15.70
2022-11-06T23:06:45.304Z,15.70
2022-11-06T23:09:11.893Z,15.70
2022-11-06T23:11:38.372Z,15.80
2022-11-06T23:14:08.939Z,15.80
2022-11-06T23:16:35.802Z,15.80
2022-11-06T23:19:02.276Z,15.70
2022-11-06T23:21:28.751Z,15.90
2022-11-06T23:23:55.214Z,15.70
2022-11-06T23:26:21.683Z,15.70
2022-11-06T23:28:48.163Z,15.70
2022-11-06T23:31:14.643Z,15.70
2022-11-06T23:33:41.134Z,15.60
2022-11-06T23:36:07.617Z,15.70
2022-11-06T23:38:34.092Z,15.70
2022-11-06T23:41:00.574Z,15.60
2022-11-06T23:43:27.045Z,15.80
2022-11-06T23:45:53.539Z,15.70
2022-11-06T23:48:20.011Z,15.70
2022-11-06T23:50:46.494Z,15.60
2022-11-06T23:53:13.133Z,15.60
2022-11-06T23:55:39.894Z,15.70
2022-11-06T23:58:06.367Z,15.70
